Station Historical Data
Daily Summary for April 13, 2017 Units:  English    Metric   Both
« Previous Day
Next Day »
Daily Weekly Monthly Yearly Custom
  High: Low: Average:
Temperature: 84.2 °F 55.7 °F 68.9 °F
Dew Point: 59.1 °F 50.2 °F 54.4 °F
Humidity: 92% 35% 64%
Wind Speed: 1.0mph 0.0mph 0.1mph
Wind Gust: 5.0mph - -
Wind- - West
Pressure: 30.30 in 30.17 in -
Precipitation: 0.00 in    
Historical Graphs
 
 
Tabular Data for April 13, 2017
Time Temperature Dew Point Pressure Wind Wind Speed Wind Gust Humidity Rainfall Rate (Hourly) solar Conditions
00:00 61.2 °F 54.6 °F 30.24 in Calm     79% 0.00 in WeatherDisplay:10.37 W/m2 CLR
00:15 60.7 °F 54.5 °F 30.25 in Calm     80% 0.00 in WeatherDisplay:10.37 W/m2 CLR
00:30 60.5 °F 54.3 °F 30.25 in Calm     80% 0.00 in WeatherDisplay:10.37 W/m2 CLR
00:45 60.3 °F 54.1 °F 30.24 in Calm     80% 0.00 in WeatherDisplay:10.37 W/m2 CLR
01:00 60.0 °F 54.2 °F 30.24 in Calm     81% 0.00 in WeatherDisplay:10.37 W/m2 CLR
01:15 60.1 °F 54.9 °F 30.24 in Calm     83% 0.00 in WeatherDisplay:10.37 W/m2 CLR
01:30 60.3 °F 54.8 °F 30.24 in Calm     82% 0.00 in WeatherDisplay:10.37 W/m2 CLR
01:45 59.7 °F 54.2 °F 30.24 in Calm     82% 0.00 in WeatherDisplay:10.37 W/m2 CLR
02:00 59.3 °F 54.1 °F 30.24 in Calm     83% 0.00 in WeatherDisplay:10.37 W/m2 CLR
02:15 59.1 °F 54.6 °F 30.24 in Calm     85% 0.00 in WeatherDisplay:10.37 W/m2 CLR
02:30 58.8 °F 54.3 °F 30.23 in Calm     85% 0.00 in WeatherDisplay:10.37 W/m2 CLR
02:45 58.7 °F 54.5 °F 30.23 in Calm     86% 0.00 in WeatherDisplay:10.37 W/m2 CLR
03:00 59.2 °F 55.3 °F 30.23 in Calm     87% 0.00 in WeatherDisplay:10.37 W/m2 CLR
03:15 58.7 °F 54.6 °F 30.23 in Calm     86% 0.00 in WeatherDisplay:10.37 W/m2 CLR
03:30 58.3 °F 54.1 °F 30.23 in Calm     86% 0.00 in WeatherDisplay:10.37 W/m2 CLR
03:45 57.7 °F 53.8 °F 30.23 in Calm     87% 0.00 in WeatherDisplay:10.37 W/m2 CLR
04:00 57.4 °F 53.6 °F 30.23 in Calm     87% 0.00 in WeatherDisplay:10.37 W/m2 CLR
04:15 57.4 °F 53.6 °F 30.22 in Calm     87% 0.00 in WeatherDisplay:10.37 W/m2 CLR
04:30 57.4 °F 53.6 °F 30.22 in Calm     87% 0.00 in WeatherDisplay:10.37 W/m2 CLR
04:45 57.4 °F 53.6 °F 30.22 in Calm     87% 0.00 in WeatherDisplay:10.37 W/m2 CLR
05:00 57.4 °F 53.6 °F 30.23 in Calm     87% 0.00 in WeatherDisplay:10.37 W/m2 CLR
05:15 57.4 °F 53.6 °F 30.23 in Calm     87% 0.00 in WeatherDisplay:10.37 W/m2 CLR
05:30 57.4 °F 53.6 °F 30.23 in Calm     87% 0.00 in WeatherDisplay:10.37 W/m2 CLR
05:45 57.4 °F 53.6 °F 30.23 in Calm     87% 0.00 in WeatherDisplay:10.37 W/m2 CLR
06:00 57.4 °F 53.6 °F 30.23 in Calm     87% 0.00 in WeatherDisplay:10.37 W/m2 CLR
06:15 57.4 °F 53.6 °F 30.24 in Calm     87% 0.00 in WeatherDisplay:10.37 W/m2 CLR
06:30 57.4 °F 53.6 °F 30.25 in Calm     87% 0.00 in WeatherDisplay:10.37 W/m2 CLR
06:45 57.4 °F 53.6 °F 30.25 in Calm     87% 0.00 in WeatherDisplay:10.37 W/m2 CLR
07:00 57.4 °F 53.6 °F 30.26 in Calm     87% 0.00 in WeatherDisplay:10.37 W/m2 CLR
07:15 57.4 °F 53.6 °F 30.26 in Calm     87% 0.00 in WeatherDisplay:10.37 W/m2 CLR
07:30 57.4 °F 53.6 °F 30.27 in Calm     87% 0.00 in WeatherDisplay:10.37 W/m2 CLR
07:45 57.4 °F 53.6 °F 30.27 in Calm     87% 0.00 in WeatherDisplay:10.37 W/m2 CLR
08:00 55.7 °F 53.4 °F 30.27 in Calm     92% 0.00 in WeatherDisplay:10.37 W/m2 CLR
08:15 57.0 °F 54.6 °F 30.28 in Calm     92% 0.00 in WeatherDisplay:10.37 W/m2 CLR
08:30 58.3 °F 55.6 °F 30.28 in Calm     91% 0.00 in WeatherDisplay:10.37 W/m2 CLR
08:45 60.0 °F 56.5 °F 30.28 in Calm     88% 0.00 in WeatherDisplay:10.37 W/m2 CLR
09:00 62.3 °F 56.7 °F 30.28 in Calm   1.0 mph 82% 0.00 in WeatherDisplay:10.37 W/m2 CLR
09:15 64.6 °F 56.5 °F 30.28 in Calm   1.0 mph 75% 0.00 in WeatherDisplay:10.37 W/m2 CLR
09:30 65.9 °F 57.3 °F 30.28 in Calm   2.0 mph 74% 0.00 in WeatherDisplay:10.37 W/m2 CLR
09:45 68.0 °F 57.8 °F 30.28 in Calm   2.0 mph 70% 0.00 in WeatherDisplay:10.37 W/m2 CLR
10:00 69.7 °F 57.4 °F 30.29 in Calm   2.0 mph 65% 0.00 in WeatherDisplay:10.37 W/m2 CLR
10:15 71.6 °F 57.9 °F 30.29 in Calm   2.0 mph 62% 0.00 in WeatherDisplay:10.37 W/m2 CLR
10:30 72.1 °F 57.9 °F 30.29 in Calm   1.0 mph 61% 0.00 in WeatherDisplay:10.37 W/m2 CLR
10:45 73.5 °F 58.3 °F 30.30 in Calm   1.0 mph 59% 0.00 in WeatherDisplay:10.37 W/m2 CLR
11:00 75.0 °F 56.7 °F 30.30 in Calm   2.0 mph 53% 0.00 in WeatherDisplay:10.37 W/m2 CLR
11:15 76.4 °F 58.5 °F 30.30 in Calm   1.0 mph 54% 0.00 in WeatherDisplay:10.37 W/m2 CLR
11:30 77.7 °F 56.5 °F 30.29 in Calm   2.0 mph 48% 0.00 in WeatherDisplay:10.37 W/m2 CLR
11:45 78.8 °F 59.1 °F 30.29 in Calm   3.0 mph 51% 0.00 in WeatherDisplay:10.37 W/m2 CLR
12:00 79.9 °F 57.2 °F 30.29 in SSE 1.0 mph 2.0 mph 46% 0.00 in WeatherDisplay:10.37 W/m2 CLR
12:15 80.1 °F 56.8 °F 30.29 in West 1.0 mph 2.0 mph 45% 0.00 in WeatherDisplay:10.37 W/m2 CLR
12:30 81.1 °F 56.5 °F 30.28 in Calm   3.0 mph 43% 0.00 in WeatherDisplay:10.37 W/m2 CLR
12:45 81.3 °F 56.0 °F 30.27 in Calm   5.0 mph 42% 0.00 in WeatherDisplay:10.37 W/m2 CLR
13:00 81.8 °F 56.5 °F 30.27 in WNW 1.0 mph 2.0 mph 42% 0.00 in WeatherDisplay:10.37 W/m2 CLR
13:15 82.6 °F 55.8 °F 30.26 in Calm   2.0 mph 40% 0.00 in WeatherDisplay:10.37 W/m2 CLR
13:30 83.6 °F 57.4 °F 30.26 in Calm   3.0 mph 41% 0.00 in WeatherDisplay:10.37 W/m2 CLR
13:45 82.3 °F 54.2 °F 30.26 in Calm   3.0 mph 38% 0.00 in WeatherDisplay:10.37 W/m2 CLR
14:00 83.1 °F 54.8 °F 30.25 in West 1.0 mph 5.0 mph 38% 0.00 in WeatherDisplay:10.37 W/m2 CLR
14:15 84.2 °F 55.1 °F 30.25 in Calm   3.0 mph 37% 0.00 in WeatherDisplay:10.37 W/m2 CLR
14:30 83.8 °F 53.3 °F 30.24 in NW 1.0 mph 5.0 mph 35% 0.00 in WeatherDisplay:10.37 W/m2 CLR
14:45 82.8 °F 53.1 °F 30.24 in WNW 1.0 mph 2.0 mph 36% 0.00 in WeatherDisplay:10.37 W/m2 CLR
15:00 80.9 °F 52.9 °F 30.23 in Calm   2.0 mph 38% 0.00 in WeatherDisplay:10.37 W/m2 CLR
15:15 80.1 °F 54.3 °F 30.22 in Calm   2.0 mph 41% 0.00 in WeatherDisplay:10.37 W/m2 CLR
15:30 80.8 °F 51.4 °F 30.21 in Calm   2.0 mph 36% 0.00 in WeatherDisplay:10.37 W/m2 CLR
15:45 80.3 °F 50.9 °F 30.21 in Calm   2.0 mph 36% 0.00 in WeatherDisplay:10.37 W/m2 CLR
16:00 81.1 °F 53.1 °F 30.20 in Calm   2.0 mph 38% 0.00 in WeatherDisplay:10.37 W/m2 CLR
16:15 80.5 °F 51.1 °F 30.19 in Calm   3.0 mph 36% 0.00 in WeatherDisplay:10.37 W/m2 CLR
16:30 79.8 °F 50.5 °F 30.19 in Calm   2.0 mph 36% 0.00 in WeatherDisplay:10.37 W/m2 CLR
16:45 79.7 °F 51.9 °F 30.18 in Calm   2.0 mph 38% 0.00 in WeatherDisplay:10.37 W/m2 CLR
17:00 79.0 °F 51.9 °F 30.18 in Calm     39% 0.00 in WeatherDisplay:10.37 W/m2 CLR
17:15 79.5 °F 50.2 °F 30.18 in Calm   1.0 mph 36% 0.00 in WeatherDisplay:10.37 W/m2 CLR
17:30 79.4 °F 50.9 °F 30.18 in Calm   1.0 mph 37% 0.00 in WeatherDisplay:10.37 W/m2 CLR
17:45 78.3 °F 52.7 °F 30.18 in Calm     41% 0.00 in WeatherDisplay:10.37 W/m2 CLR
18:00 77.9 °F 52.3 °F 30.18 in Calm     41% 0.00 in WeatherDisplay:10.37 W/m2 CLR
18:15 78.1 °F 51.8 °F 30.18 in Calm     40% 0.00 in WeatherDisplay:10.37 W/m2 CLR
18:30 78.0 °F 51.7 °F 30.18 in Calm     40% 0.00 in WeatherDisplay:10.37 W/m2 CLR
18:45 77.7 °F 53.4 °F 30.17 in Calm     43% 0.00 in WeatherDisplay:10.37 W/m2 CLR
19:00 76.8 °F 53.2 °F 30.18 in Calm     44% 0.00 in WeatherDisplay:10.37 W/m2 CLR
19:15 76.3 °F 52.8 °F 30.18 in Calm     44% 0.00 in WeatherDisplay:10.37 W/m2 CLR
19:30 75.7 °F 52.9 °F 30.18 in Calm     45% 0.00 in WeatherDisplay:10.37 W/m2 CLR
19:45 74.9 °F 52.7 °F 30.18 in Calm     46% 0.00 in WeatherDisplay:10.37 W/m2 CLR
20:00 74.0 °F 53.1 °F 30.18 in Calm     48% 0.00 in WeatherDisplay:10.37 W/m2 CLR
20:15 72.8 °F 52.5 °F 30.19 in Calm     49% 0.00 in WeatherDisplay:10.37 W/m2 CLR
20:30 71.7 °F 53.7 °F 30.19 in Calm     53% 0.00 in WeatherDisplay:10.37 W/m2 CLR
20:45 70.8 °F 53.8 °F 30.19 in Calm     55% 0.00 in WeatherDisplay:10.37 W/m2 CLR
21:00 70.0 °F 54.5 °F 30.20 in Calm     58% 0.00 in WeatherDisplay:10.37 W/m2 CLR
21:15 69.3 °F 53.9 °F 30.20 in Calm     58% 0.00 in WeatherDisplay:10.37 W/m2 CLR
21:30 68.6 °F 54.6 °F 30.21 in Calm     61% 0.00 in WeatherDisplay:10.37 W/m2 CLR
21:45 68.1 °F 54.1 °F 30.21 in Calm     61% 0.00 in WeatherDisplay:10.37 W/m2 CLR
22:00 68.0 °F 55.4 °F 30.22 in Calm     64% 0.00 in WeatherDisplay:10.37 W/m2 CLR
22:15 67.7 °F 54.6 °F 30.22 in Calm     63% 0.00 in WeatherDisplay:10.37 W/m2 CLR
22:30 67.4 °F 55.2 °F 30.22 in Calm     65% 0.00 in WeatherDisplay:10.37 W/m2 CLR
22:45 66.9 °F 54.7 °F 30.22 in Calm     65% 0.00 in WeatherDisplay:10.37 W/m2 CLR
23:00 66.2 °F 54.9 °F 30.23 in Calm     67% 0.00 in WeatherDisplay:10.37 W/m2 CLR
23:15 65.7 °F 54.4 °F 30.23 in Calm     67% 0.00 in WeatherDisplay:10.37 W/m2 CLR
23:30 65.1 °F 55.1 °F 30.23 in Calm     70% 0.00 in WeatherDisplay:10.37 W/m2 CLR
23:45 64.6 °F 55.0 °F 30.23 in Calm     71% 0.00 in WeatherDisplay:10.37 W/m2 CLR
Piedmont Bend
Compliments of Weather Underground - 4 mb